Terminal Aerodrome Forecast
Issued by NWS Detroit/Pontiac, MI

Home | Current Version | Previous Version | Text Only | Print | Product List | Glossary On
Versions: 1 2 3 4 5 6 7 8 9 10 11 12 13 14 15 16 17 18 19 20 21 22 23 24 25 26 27 28 29 30 31
000
FTUS43 KDTX 302338
TAFDTW
TAF
KDTW 302338Z 0100/0206 05010KT 6SM -SHRA BR BKN007 OVC015
      TEMPO 0100/0102 3SM RA OVC007
     FM010800 07005KT 2SM -SHRA BR OVC004
     FM011300 07005KT 4SM -SHRA BR OVC008
     FM011600 10005KT 6SM -SHRA OVC012
     FM012100 13005KT 6SM -SHRA BKN025 OVC040
     FM020100 18005KT P6SM BKN040 BKN080=

USA.gov is the U.S. government's official web portal to all federal, state and local government web resources and services.